»·PEaware :: UCA212 KEGE-KGJT

UCA212 :: KEGE-KGJT

FLIGHT INFORMATION

Flight Status: Arrived
Operator: Unknown
More flights by this operator :: More flights under this callsign
Pilot: Alex S. (7186)
Aircraft: DEHAVILLAND DASH 8 400
(DH8D)
More flights by this aircraft type
Origin: KEGE Eagle Co Regl
United States
Destination: KGJT Walker
United States
More flights between these airports :: More routes between these airports
Route: EKR2 EKR JNC
File this flight plan on PilotEdge
Remarks: PBN / D1 DOF / 171119 REG / N328NG OPR / UAL PER / C RMK / TCAS SIMBRIEF
Altitude:
(Current/Filed)
20,000ft
Speed:
(Current/Filed)
357kts
Departed: 18-Nov-17 07:29 PM
Arrived: 18-Nov-17 08:01 PM
Distance/Time
Traveled:
81nm/0:32
Distance/Time
To Go:
Arrived

Flight Plot

Page will automatically refresh every two minutes.

Flight plan parsing failed; only flown route is shown


Map Options




Map Legend


Flown Route
Filed Route
Departure Airport
Arrival Airport
Navaid (VOR, NDB)
Fix

Horizontal Profiles

Position Reports

Time Latitude Longitude Heading Altitude Ground
Speed
18-Nov-17 18:51 39.640548 -106.915450 171 6522ft 0kts
18-Nov-17 18:52 39.640548 -106.915450 171 6522ft 0kts
18-Nov-17 18:53 39.640549 -106.915450 171 6522ft 0kts
18-Nov-17 18:54 39.640549 -106.915450 171 6522ft 0kts
18-Nov-17 18:55 39.640549 -106.915450 171 6522ft 0kts
18-Nov-17 18:56 39.640549 -106.915450 171 6522ft 0kts
18-Nov-17 18:57 39.640548 -106.915450 171 6522ft 0kts
18-Nov-17 18:58 39.640549 -106.915450 171 6522ft 0kts
18-Nov-17 18:59 39.640549 -106.915450 171 6522ft 0kts
18-Nov-17 19:00 39.640549 -106.915450 171 6522ft 0kts
18-Nov-17 19:01 39.640549 -106.915450 171 6522ft 0kts
18-Nov-17 19:02 39.640549 -106.915450 171 6522ft 0kts
18-Nov-17 19:03 39.640549 -106.915450 171 6522ft 0kts
18-Nov-17 19:04 39.640549 -106.915450 171 6522ft 0kts
18-Nov-17 19:05 39.640549 -106.915450 171 6522ft 0kts
18-Nov-17 19:06 39.640549 -106.915450 171 6522ft 0kts
18-Nov-17 19:07 39.640549 -106.915450 171 6522ft 0kts
18-Nov-17 19:08 39.640549 -106.915450 171 6522ft 0kts
18-Nov-17 19:09 39.640549 -106.915450 171 6522ft 0kts
18-Nov-17 19:10 39.640549 -106.915450 171 6522ft 0kts
18-Nov-17 19:11 39.640549 -106.915450 171 6522ft 0kts
18-Nov-17 19:12 39.640549 -106.915450 171 6522ft 0kts
18-Nov-17 19:13 39.640549 -106.915450 171 6522ft 0kts
18-Nov-17 19:14 39.640549 -106.915450 171 6522ft 0kts
18-Nov-17 19:15 39.640549 -106.915450 171 6522ft 0kts
18-Nov-17 19:16 39.640549 -106.915450 171 6522ft 0kts
18-Nov-17 19:17 39.640549 -106.915450 171 6522ft 0kts
18-Nov-17 19:18 39.640549 -106.915450 171 6522ft 0kts
18-Nov-17 19:19 39.640549 -106.915450 171 6522ft 0kts
18-Nov-17 19:20 39.640549 -106.915450 171 6522ft 0kts
18-Nov-17 19:21 39.640549 -106.915450 171 6522ft 0kts
18-Nov-17 19:22 39.640549 -106.915450 171 6522ft 0kts
18-Nov-17 19:23 39.640710 -106.915629 87 6522ft 3kts
18-Nov-17 19:24 39.640682 -106.915763 51 6522ft 0kts
18-Nov-17 19:25 39.640682 -106.915763 51 6522ft 0kts
18-Nov-17 19:26 39.640682 -106.915763 51 6522ft 0kts
18-Nov-17 19:27 39.641251 -106.915671 348 6522ft 5kts
18-Nov-17 19:28 39.642116 -106.911759 81 6522ft 13kts
18-Nov-17 19:29 39.642912 -106.904438 84 6522ft 16kts
18-Nov-17 19:30 39.643445 -106.900276 41 6522ft 0kts
18-Nov-17 19:31 39.643445 -106.900276 41 6522ft 0kts
18-Nov-17 19:32 39.643445 -106.900276 41 6522ft 0kts
18-Nov-17 19:33 39.644357 -106.901478 261 6522ft 2kts
18-Nov-17 19:34 39.638803 -106.938074 242 7443ft 155kts
18-Nov-17 19:35 39.631461 -106.989773 308 10347ft 163kts
18-Nov-17 19:36 39.669465 -107.026797 319 12261ft 188kts
18-Nov-17 19:37 39.718596 -107.065875 328 14148ft 227kts
18-Nov-17 19:38 39.774059 -107.104008 328 16066ft 232kts
18-Nov-17 19:39 39.794388 -107.170116 248 17972ft 242kts
18-Nov-17 19:40 39.769146 -107.225764 247 19252ft 239kts
18-Nov-17 19:41 39.735533 -107.301435 247 20358ft 259kts
18-Nov-17 19:42 39.697551 -107.388293 247 20445ft 295kts
18-Nov-17 19:43 39.657261 -107.479261 246 20445ft 300kts
18-Nov-17 19:44 39.616559 -107.570387 246 20447ft 297kts
18-Nov-17 19:45 39.576277 -107.660299 246 20448ft 295kts
18-Nov-17 19:46 39.535689 -107.750889 246 20449ft 294kts
18-Nov-17 19:47 39.495478 -107.840310 246 20190ft 297kts
18-Nov-17 19:48 39.455636 -107.928881 246 19009ft 286kts
18-Nov-17 19:49 39.417237 -108.013913 246 17539ft 272kts
18-Nov-17 19:50 39.380671 -108.095361 245 15971ft 264kts
18-Nov-17 19:51 39.344912 -108.174390 244 14589ft 254kts
18-Nov-17 19:52 39.320372 -108.254662 278 13108ft 242kts
18-Nov-17 19:53 39.330191 -108.340114 280 11816ft 250kts
18-Nov-17 19:54 39.340825 -108.427753 280 10642ft 254kts
18-Nov-17 19:55 39.353015 -108.516955 280 10028ft 256kts
18-Nov-17 19:56 39.365534 -108.604883 280 10000ft 254kts
18-Nov-17 19:57 39.378119 -108.692939 280 9998ft 251kts
18-Nov-17 19:58 39.374374 -108.776749 225 9988ft 250kts
18-Nov-17 19:59 39.317772 -108.813952 174 8905ft 219kts
18-Nov-17 20:00 39.269886 -108.774071 135 7651ft 201kts
18-Nov-17 20:01 39.234305 -108.722635 127 6814ft 180kts
18-Nov-17 20:02 39.205585 -108.672811 124 6744ft 174kts
18-Nov-17 20:03 39.178165 -108.623000 125 6300ft 162kts
18-Nov-17 20:04 39.154533 -108.580289 124 5539ft 141kts
18-Nov-17 20:05 39.132207 -108.539389 124 4868ft 126kts
18-Nov-17 20:06 39.124634 -108.525546 126 4865ft 16kts
18-Nov-17 20:07 39.124332 -108.527932 208 4865ft 9kts
18-Nov-17 20:08 39.123375 -108.528735 213 4865ft 0kts
18-Nov-17 20:09 39.123375 -108.528735 213 4865ft 0kts
18-Nov-17 20:10 39.123375 -108.528735 213 4865ft 0kts
18-Nov-17 20:11 39.123375 -108.528735 213 4865ft 0kts
18-Nov-17 20:12 39.123375 -108.528735 213 4865ft 0kts

Navigation Log

Ident Type
Flight plan parsing failed, navigation log unavailable